Date,TemperatureHighF,TemperatureAvgF,TemperatureLowF,DewpointHighF,DewpointAvgF,DewpointLowF,HumidityHigh,HumidityAvg,HumidityLow,PressureMaxIn,PressureMinIn,WindSpeedMaxMPH,WindSpeedAvgMPH,GustSpeedMaxMPH,PrecipitationSumIn
2013-1-1,41.1,35.9,24.8,31.4,24.7,10.4,74,64,49,29.94,29.76,20,2,20,0.01
2013-1-2,30.4,25.1,17.3,18.5,14.5,10.4,79,64,55,30.10,29.93,15,1,15,0.00
2013-1-3,31.4,23.3,13.7,21.5,10.9,0.2,80,59,45,30.15,30.00,14,1,14,0.00
2013-1-4,38.3,33.6,26.2,29.4,24.9,18.9,78,70,63,30.00,29.85,28,3,28,0.00
2013-1-5,44.9,34.9,25.1,28.0,24.9,21.9,90,68,48,30.23,29.90,18,2,19,0.00
2013-1-6,41.9,35.7,28.2,37.3,32.1,25.1,92,86,81,30.19,29.95,24,6,24,0.00
2013-1-20,45.2,36.0,30.0,20.5,17.5,13.6,54,47,34,29.96,29.77,18,4,18,0.00
2013-1-21,31.1,26.9,19.7,28.2,17.7,10.6,95,70,49,30.09,29.77,14,1,14,0.00
2013-1-22,26.0,20.2,12.6,24.3,6.6,-3.7,94,58,37,30.11,29.76,23,4,23,0.00
2013-1-23,16.6,10.7,7.9,0.0,-2.1,-3.9,64,56,43,30.19,30.10,15,3,15,0.00
2013-1-28,35.2,32.0,24.2,34.4,28.3,10.6,97,87,53,30.39,29.97,14,1,14,0.17
2013-1-29,44.7,36.0,31.1,37.9,33.7,30.4,98,92,73,30.18,29.97,10,1,10,0.03
2013-1-30,54.1,47.3,37.6,52.3,46.7,36.6,99,98,92,30.12,29.46,26,4,26,0.00
2013-1-31,55.7,45.3,30.7,55.2,35.7,13.0,99,71,38,29.68,29.05,47,13,47,0.21
2013-2-1,33.2,27.8,19.3,19.2,12.4,7.3,69,52,38,30.15,29.68,24,4,24,0.00
2013-2-2,31.6,24.5,17.5,17.7,13.0,8.2,74,61,51,30.27,30.05,23,3,23,0.00
2013-2-8,34.9,30.0,0.0,31.5,28.8,0.0,98,92,83,30.22,29.46,21,4,21,0.00
2013-2-9,25.0,22.4,18.5,24.3,17.5,5.8,97,83,51,30.24,29.55,21,4,21,0.00
2013-2-10,35.2,20.8,7.2,20.7,11.2,2.4,92,68,33,30.42,30.24,14,1,14,0.01
2013-2-11,44.3,33.6,15.7,44.0,32.8,13.8,99,97,92,30.34,29.63,20,1,20,0.70
2013-2-12,46.2,38.7,29.0,39.8,31.9,24.8,100,78,53,29.92,29.65,22,2,22,0.00
2013-2-13,40.7,33.1,25.0,30.1,26.8,21.3,88,78,61,29.91,29.64,14,2,14,0.00
2013-2-14,43.1,33.8,24.3,33.0,29.5,23.3,98,85,57,30.00,29.69,12,1,12,0.13
2013-2-15,45.3,36.1,26.5,39.6,34.0,25.5,99,92,79,30.01,29.92,13,2,13,0.01
2013-2-27,43.1,41.8,39.8,42.8,41.5,39.4,100,99,98,29.63,29.52,33,4,33,1.68
2013-2-28,49.4,39.8,35.3,44.4,38.6,35.0,100,96,78,29.61,29.51,11,1,11,0.04
2013-3-1,46.6,40.0,34.0,37.0,32.4,27.9,93,75,55,29.70,29.52,19,3,20,0.00
2013-3-2,39.4,36.3,32.6,30.7,27.8,26.7,83,71,63,29.70,29.63,18,3,18,0.00
2013-3-3,39.2,32.8,29.4,27.7,24.7,22.1,81,72,55,29.67,29.58,16,4,16,0.00
2013-3-4,41.4,33.6,28.0,26.1,23.0,20.7,76,65,50,29.79,29.64,30,6,30,0.00
2013-3-5,47.9,37.6,30.1,36.3,28.1,22.0,90,69,50,30.02,29.79,28,4,28,0.00
2013-3-6,38.3,36.7,33.4,35.1,32.4,30.0,90,85,78,30.00,29.86,29,6,29,0.02
2013-3-7,40.4,35.5,32.0,32.3,30.5,28.6,97,82,66,29.97,29.84,41,10,41,0.01
2013-3-8,37.1,33.0,31.3,34.4,32.0,30.8,99,96,81,30.06,29.90,23,4,23,0.46
2013-3-10,45.3,38.8,34.2,37.2,34.0,31.7,93,83,68,30.34,30.30,10,1,10,0.00
2013-3-11,51.7,41.4,35.2,45.6,38.9,33.3,98,91,78,30.32,30.11,10,1,10,0.00
2013-3-12,49.1,45.0,38.5,46.3,43.6,38.0,99,95,89,30.12,30.00,13,2,13,0.00
2013-3-15,41.9,39.4,36.6,31.4,29.4,25.2,73,67,52,29.72,29.68,28,5,28,0.00
2013-3-16,40.2,34.0,28.3,29.9,23.6,13.7,90,67,37,29.87,29.72,19,3,19,0.00
2013-3-17,38.5,32.3,27.2,30.0,14.8,5.6,91,51,28,30.29,29.87,24,4,24,0.00
2013-3-18,34.4,29.9,22.3,29.6,15.6,3.9,93,56,32,30.42,30.09,19,3,19,0.00
2013-3-19,42.2,35.6,31.4,39.7,33.8,29.2,97,93,84,30.09,29.57,20,5,20,0.73
2013-3-20,43.4,35.2,28.6,31.9,24.4,19.3,92,66,41,29.82,29.70,23,3,23,0.00
2013-3-21,38.3,32.9,28.2,28.8,25.5,18.0,90,74,58,29.81,29.60,19,3,19,0.00
2013-3-22,43.2,33.7,23.9,26.6,18.8,13.4,70,54,40,29.80,29.64,19,3,20,0.00
2013-3-23,47.1,37.7,28.8,25.5,21.6,16.9,77,54,32,29.85,29.69,29,5,29,0.00
2013-3-24,49.2,37.5,27.1,33.7,25.1,18.7,86,62,41,29.88,29.68,18,2,18,0.00
2013-3-25,44.7,37.3,33.2,33.8,30.5,27.4,90,77,56,29.73,29.46,21,3,21,0.00
2013-4-5,55.9,49.2,41.3,42.2,31.3,20.6,84,52,28,29.91,29.65,27,6,27,0.00
2013-4-6,41.3,37.4,34.8,25.5,23.9,20.3,65,58,52,30.10,29.90,20,5,20,0.00
2013-4-7,53.4,48.5,44.6,43.5,41.3,35.7,93,77,62,30.28,30.01,21,9,21,0.00
2013-4-8,65.5,50.2,39.7,48.2,43.9,38.9,99,81,48,30.06,29.96,14,2,15,0.00
2013-4-9,80.0,57.7,44.4,56.1,46.7,43.1,99,72,30,30.04,29.86,20,3,20,0.02
2013-4-10,64.3,50.8,45.7,54.2,47.1,44.2,97,88,68,29.98,29.82,20,3,23,0.20
2013-4-11,62.4,49.1,44.1,50.9,45.5,38.7,99,88,63,30.08,29.78,16,2,16,0.01
2013-4-12,45.7,41.8,38.5,40.1,36.2,28.2,98,82,53,30.08,29.70,29,7,29,0.58
2013-4-13,50.4,43.5,38.4,44.2,39.2,35.8,98,85,65,29.94,29.68,19,3,19,0.02
2013-4-14,55.2,45.9,40.9,41.8,34.4,26.2,95,67,37,30.20,29.93,25,3,25,0.00
2013-4-15,54.9,45.0,36.2,40.9,34.4,26.9,95,67,48,30.38,30.18,12,2,12,0.00
2013-4-16,60.9,49.0,36.5,51.7,45.0,35.8,99,87,66,30.39,30.12,18,4,20,0.00
2013-4-17,68.8,56.0,44.3,53.0,43.6,36.6,98,67,32,30.30,30.09,17,3,18,0.00
2013-4-18,56.2,47.7,38.7,43.1,40.5,37.1,94,77,57,30.38,30.24,14,2,15,0.00
2013-4-19,67.2,58.6,52.1,61.9,56.9,51.8,100,94,81,30.01,29.67,29,10,29,0.02
2013-4-20,57.7,50.9,44.3,56.0,43.1,28.4,99,77,38,30.22,29.64,23,4,23,0.41
2013-4-21,54.5,43.3,35.0,36.2,27.2,20.0,75,54,29,30.64,30.22,27,4,27,0.00
2013-4-22,52.1,43.9,34.3,41.6,35.0,29.7,89,72,50,30.68,30.51,22,4,22,0.00
2013-4-23,48.0,43.3,39.4,42.8,38.8,32.6,93,84,74,30.51,30.01,22,6,22,0.00
2013-4-24,62.6,49.3,42.9,50.5,44.7,40.1,98,85,59,30.01,29.87,19,5,19,0.00
2013-4-25,61.2,52.1,41.7,50.4,40.8,29.2,98,68,34,30.26,29.87,20,3,20,0.04
2013-4-26,63.6,49.8,34.7,47.7,38.8,31.8,93,68,38,30.38,30.25,11,1,11,0.00
2013-4-27,61.1,48.9,36.5,49.5,44.2,35.7,98,85,59,30.39,30.30,12,1,12,0.00
2013-4-28,66.3,50.4,37.1,49.5,42.7,33.1,99,78,42,30.32,30.22,11,1,11,0.01
2013-4-29,58.9,52.1,46.7,49.8,46.3,42.9,96,81,63,30.26,30.21,10,1,10,0.00
2013-4-30,65.3,54.1,42.6,46.0,40.5,33.7,84,62,34,30.33,30.22,12,1,12,0.00
2013-5-1,65.8,51.5,37.4,51.6,43.6,33.4,96,76,57,30.47,30.32,11,1,11,0.00
2013-5-2,67.5,53.8,38.4,50.5,45.3,37.8,99,76,47,30.44,30.31,15,2,15,0.00
2013-5-3,64.3,53.0,42.9,49.5,42.7,37.1,96,69,48,30.45,30.35,18,3,18,0.00
2013-5-4,62.1,50.8,40.8,48.6,44.0,39.5,98,79,55,30.35,30.25,15,2,15,0.00
2013-5-5,59.9,49.1,38.5,48.5,42.9,36.8,94,80,61,30.29,30.23,19,2,19,0.00
2013-5-6,66.3,52.4,40.9,53.2,46.5,39.5,96,81,60,30.27,30.15,11,1,11,0.00
2013-5-7,64.8,54.5,42.9,58.6,51.5,42.4,99,90,68,30.17,30.10,12,1,12,0.00
2013-5-8,63.9,57.5,53.9,61.2,56.5,53.5,99,96,90,30.13,30.01,20,2,20,0.28
2013-5-9,66.0,56.1,51.7,62.8,55.5,51.3,100,98,84,30.02,29.85,9,1,9,0.26
2013-5-10,73.7,58.6,48.0,60.4,54.6,48.0,100,88,59,29.97,29.90,13,2,13,0.00
2013-5-11,57.9,55.8,55.0,57.4,55.2,54.2,99,98,96,29.91,29.81,7,0,7,0.06
2013-5-15,61.9,55.5,36.2,55.3,50.2,35.7,98,83,58,30.04,29.68,14,3,15,0.02
2013-5-16,74.8,59.5,44.8,57.7,51.8,44.3,99,78,44,29.78,29.68,17,2,17,0.00
2013-5-17,72.0,57.9,47.9,52.8,47.8,42.3,95,71,40,30.19,29.78,18,2,18,0.00
2013-5-18,71.3,56.9,45.5,55.5,50.9,44.7,99,82,51,30.30,30.19,13,2,13,0.00
2013-5-19,63.4,54.9,47.8,56.2,52.1,47.0,99,91,77,30.34,30.26,6,0,6,0.07
2013-7-7,86.5,82.2,78.7,78.9,76.4,75.1,89,83,74,29.94,29.91,16,4,16,0.00
2013-7-9,77.1,74.3,71.9,74.0,72.2,69.4,98,93,84,30.05,30.00,11,3,13,0.00
2013-7-10,80.5,75.8,71.9,77.1,73.7,70.7,99,93,87,30.02,29.79,21,6,21,0.00
2013-7-11,77.3,71.6,0.0,74.1,69.8,0.0,97,90,89,29.89,29.78,16,2,16,0.02
2013-7-12,79.3,73.1,69.1,71.3,67.7,63.7,97,83,74,30.13,29.89,18,5,19,0.00
2013-7-13,75.8,71.5,68.1,73.3,69.9,65.3,99,95,85,30.29,30.12,14,2,14,0.01
2013-7-14,83.6,76.5,71.1,77.2,74.3,70.8,100,93,77,30.30,30.20,11,2,14,0.00
2013-7-15,91.2,79.6,71.8,78.9,75.0,70.9,98,87,59,30.20,30.09,14,1,15,0.00
2013-7-16,92.6,82.3,74.1,75.8,72.9,69.7,93,75,49,30.14,30.08,16,2,16,0.00
2013-7-17,87.0,78.9,72.1,78.2,74.2,70.8,97,86,72,30.16,30.03,12,2,12,0.00
2013-7-18,86.3,79.6,73.0,79.4,75.8,71.9,97,88,76,30.03,29.93,10,2,14,0.00
2013-7-19,86.3,80.0,75.6,80.3,76.5,73.5,98,89,78,29.93,29.75,23,4,23,0.00
2013-7-20,87.3,79.9,76.4,78.5,75.4,73.1,95,86,69,29.81,29.67,18,3,18,0.00
2013-7-21,79.5,74.2,69.9,73.6,68.7,65.1,95,83,63,29.96,29.81,10,1,10,0.05
2013-7-22,77.3,72.7,70.3,72.9,70.5,69.2,98,93,83,29.96,29.83,12,2,12,0.00
2013-7-23,80.9,75.0,71.2,77.9,73.3,70.3,99,95,80,29.83,29.55,15,3,15,0.21
2013-7-24,82.3,75.3,69.8,76.4,70.5,60.8,99,86,69,29.88,29.58,15,2,15,0.00
2013-7-25,70.6,62.0,57.9,61.5,58.1,53.8,97,88,72,30.05,29.88,19,6,19,1.26
2013-7-26,70.6,65.5,60.3,68.2,63.7,58.9,98,94,87,30.04,29.93,17,3,17,0.33
2013-7-27,79.9,72.2,67.0,71.2,68.6,66.0,98,89,64,30.06,29.96,10,4,14,0.00
2013-7-28,77.3,72.4,67.2,71.9,69.0,62.2,98,90,63,29.99,29.93,12,2,12,0.00
2013-7-29,81.8,74.8,66.4,75.9,72.0,64.4,99,91,80,30.05,29.94,10,1,10,0.00
2013-7-30,78.8,70.9,63.5,69.1,63.6,57.9,95,78,57,30.11,30.04,18,3,19,0.00
2013-7-31,77.0,69.7,59.3,67.7,64.1,58.4,97,83,65,30.13,30.04,14,2,14,0.00
2013-8-1,78.2,70.2,64.4,70.8,66.6,63.5,98,89,73,30.04,29.84,15,3,18,0.04
2013-8-2,80.7,73.7,68.7,72.3,69.0,66.1,97,86,64,29.88,29.76,21,3,21,0.23
2013-8-3,74.9,71.3,65.9,70.3,67.2,64.0,95,87,78,29.88,29.81,14,3,16,0.03
2013-8-4,81.1,69.3,58.7,67.8,61.3,56.6,97,78,49,29.90,29.79,17,1,17,0.00
2013-8-5,77.7,66.8,55.6,59.6,55.1,48.2,95,69,40,30.03,29.90,16,1,16,0.00
2013-8-6,75.0,66.6,55.7,65.8,59.6,53.7,95,79,55,30.13,30.02,13,2,13,0.00
2013-8-7,74.9,67.9,58.0,67.5,63.0,57.2,98,85,67,30.17,30.09,13,2,13,0.00
2013-8-8,79.3,73.4,70.3,74.6,70.6,66.4,96,91,85,30.10,30.01,17,5,17,0.06
2013-8-9,77.7,73.9,72.1,75.4,72.8,71.2,98,96,92,30.04,29.78,23,6,23,0.36
2013-8-10,80.7,73.3,65.7,72.9,68.1,58.5,99,84,63,30.02,29.80,16,2,16,0.01
2013-8-11,75.5,68.2,54.0,66.6,58.8,51.7,94,73,50,30.09,30.01,15,3,16,0.00
2013-8-12,76.8,70.7,67.3,70.3,67.1,62.0,97,89,61,30.03,29.91,7,0,7,0.10
2013-9-5,62.1,56.7,54.3,52.5,52.0,51.4,91,85,69,30.12,30.05,2,0,2,0.00
2013-9-6,67.8,59.4,50.9,52.3,48.9,44.6,93,70,44,30.23,30.11,15,3,15,0.00
2013-9-7,74.2,62.9,48.4,63.4,55.2,47.4,98,78,49,30.11,29.88,19,4,19,0.00
2013-9-8,80.1,70.2,56.7,66.5,59.1,44.8,88,69,45,30.06,29.77,18,2,18,0.00
2013-9-9,66.7,59.8,47.7,59.1,49.1,42.2,90,69,45,30.24,30.06,16,3,16,0.00
2013-9-10,73.8,69.9,65.4,71.2,66.6,58.7,97,89,79,30.17,30.03,18,7,20,0.06
2013-9-11,81.8,73.0,68.9,76.5,71.4,68.3,99,95,83,30.10,30.05,13,2,13,0.00
2013-9-22,69.8,62.9,51.9,66.2,56.5,44.8,98,80,61,29.86,29.64,13,0,13,0.40
2013-9-23,64.0,54.0,45.4,49.3,45.9,42.5,93,75,53,30.01,29.85,11,1,13,0.00
2013-9-24,71.0,54.3,41.6,53.2,45.8,40.3,96,76,41,30.02,29.82,13,1,14,0.00
2013-9-25,70.3,57.9,46.6,56.2,50.1,45.0,95,77,51,29.92,29.86,17,2,17,0.00
2013-11-4,45.4,38.0,30.5,27.1,21.7,16.7,76,54,32,30.67,30.54,18,2,18,0.00
2013-11-5,50.7,43.8,33.3,42.5,36.0,26.8,83,74,66,30.68,30.49,12,1,12,0.00
2013-11-6,59.2,52.0,37.1,55.7,47.6,35.3,96,85,69,30.50,30.07,16,4,16,0.00
2013-11-7,61.3,54.4,39.1,60.4,52.5,35.6,98,93,78,30.07,29.70,14,4,19,0.28
2013-11-8,51.7,42.1,35.8,37.3,32.8,28.5,93,71,45,30.15,29.86,16,0,16,0.00
2013-11-9,50.5,42.5,30.8,41.1,32.2,26.6,86,67,51,30.26,30.01,23,4,23,0.00
2013-11-10,58.0,50.6,46.1,47.1,40.8,33.8,77,69,54,30.01,29.74,22,6,22,0.00
2013-11-11,53.3,48.2,39.6,42.3,35.3,29.6,70,61,49,30.15,29.93,24,6,26,0.00
2013-11-12,52.5,37.7,29.4,42.7,27.9,18.3,91,68,56,30.20,29.89,24,3,24,0.02
2013-11-13,39.2,31.0,25.9,22.4,18.0,13.3,75,59,37,30.30,30.20,19,1,19,0.00
2013-11-14,50.8,44.1,32.8,37.5,30.4,22.3,70,58,48,30.22,30.09,25,5,25,0.00
2013-11-15,54.8,46.8,35.3,45.2,39.1,29.6,94,75,61,30.23,30.15,19,3,19,0.00
2013-11-16,55.3,45.8,34.9,50.0,41.9,33.5,96,87,72,30.30,30.21,13,2,14,0.00
2013-11-17,59.3,52.5,37.1,59.0,51.6,36.1,99,97,91,30.29,29.83,11,1,11,0.06
2013-11-18,60.4,57.2,50.3,60.1,49.9,33.0,99,79,44,29.83,29.58,39,5,39,0.28
2013-11-19,50.4,42.5,33.8,33.5,26.7,21.8,63,54,43,30.29,29.70,21,2,21,0.00
2013-11-20,44.1,33.2,24.8,22.0,19.3,15.7,79,58,32,30.61,30.28,22,2,22,0.00
2013-11-21,47.7,36.5,22.7,38.6,28.6,18.0,85,74,43,30.62,30.38,7,0,7,0.00
2013-11-22,52.3,49.2,42.3,51.8,47.5,37.5,98,94,83,30.38,29.84,10,1,14,0.11
2013-11-23,51.3,43.3,31.3,50.2,29.5,15.6,96,61,33,29.94,29.83,20,2,20,0.01
2013-11-24,31.2,25.7,22.5,16.8,6.7,1.4,63,44,33,30.27,29.88,26,3,26,0.00
2013-11-25,37.2,28.7,18.0,26.2,15.7,8.8,69,58,42,30.43,30.27,27,4,27,0.00
2013-11-26,50.4,40.1,37.1,49.5,31.4,21.4,98,72,51,30.33,29.91,29,4,29,0.31
2013-11-27,60.7,50.0,38.0,59.8,48.7,32.3,99,95,78,29.92,29.22,41,7,41,1.49
2013-11-28,38.7,31.2,24.3,33.3,18.3,12.2,83,59,40,30.46,29.60,22,3,22,0.00
2013-11-29,36.7,29.2,24.8,21.9,18.5,14.2,83,64,50,30.72,30.45,13,2,13,0.00
2013-11-30,40.4,30.4,20.6,32.4,21.7,11.4,84,70,49,30.76,30.39,12,1,12,0.00
2013-12-1,43.9,40.4,34.2,42.6,38.2,32.1,98,92,72,30.39,29.99,13,2,13,0.13
2013-12-2,44.9,36.4,31.6,40.6,35.4,30.9,99,96,78,29.99,29.88,5,1,6,0.01
2013-12-3,50.4,38.0,31.8,43.6,34.3,31.3,99,87,56,29.97,29.84,14,2,14,0.00
2013-12-4,48.1,36.7,28.4,39.2,32.9,27.1,97,87,62,30.16,29.97,11,1,11,0.00
2013-12-5,54.6,49.5,35.2,53.1,48.5,33.9,99,96,94,30.16,29.94,11,1,11,0.00
2013-12-6,56.3,48.5,43.6,56.3,47.3,41.2,100,96,88,30.07,29.87,19,3,19,0.13
2013-12-16,19.3,17.4,15.6,11.0,10.4,9.9,80,74,69,30.22,30.19,0,0,0,0.00
2013-12-17,23.6,18.1,12.4,22.4,15.3,9.5,95,89,78,30.24,29.90,22,4,22,0.00
2013-12-18,35.7,27.1,17.2,24.2,20.3,14.2,90,76,59,30.12,29.86,19,4,19,0.03
2013-12-19,43.6,36.0,27.0,36.0,29.5,20.5,86,77,65,30.15,29.99,23,3,23,0.02
2013-12-20,48.4,39.0,29.9,42.0,36.0,28.6,96,89,71,30.11,29.96,12,1,12,0.00
2013-12-21,54.6,46.7,40.2,49.8,45.1,39.6,99,94,82,30.00,29.90,13,2,13,0.00
2013-12-22,60.7,53.2,48.6,55.5,51.9,47.5,99,96,83,29.97,29.82,19,4,25,0.01
2013-12-23,53.9,49.8,44.5,53.1,49.2,44.1,100,98,95,30.01,29.87,15,2,15,0.56
2013-12-31,29.2,27.1,24.7,21.6,18.9,11.9,75,71,58,30.22,30.05,16,2,16,0.00
2014-1-1,31.5,25.6,19.5,18.8,13.7,10.2,69,61,45,30.40,30.22,15,2,15,0.00
2014-1-2,27.4,22.0,9.7,21.6,18.6,7.6,92,87,70,30.29,29.67,28,7,28,0.00